Time;durP1;ratioP1;P1;durP2;ratioP2;P2;SDS_P1;SDS_P2;PMS_P1;PMS_P2;Temp;Humidity;BMP_temperature;BMP_pressure;BME280_temperature;BME280_humidity;BME280_pressure;Samples;Min_cycle;Max_cycle;Signal;HPM_P1;HPM_P2
2022/11/12 00:01:49;;;;;;;19.73;4.70;;;;;;;;;;4995226;28;20018;-26
2022/11/12 00:04:15;;;;;;;11.48;3.40;;;;;;;;;;4995073;28;20042;-29
2022/11/12 00:06:41;;;;;;;8.80;3.50;;;;;;;;;;4995446;28;20114;-25
2022/11/12 00:09:08;;;;;;;16.23;3.65;;;;;;;;;;4978020;28;20030;-25
2022/11/12 00:11:34;;;;;;;15.35;3.28;;;;;;;;;;4995423;28;20038;-28
2022/11/12 00:14:00;;;;;;;16.42;3.22;;;;;;;;;;4995339;28;20347;-24
2022/11/12 00:16:26;;;;;;;15.82;3.38;;;;;;;;;;4995388;28;20104;-26
2022/11/12 00:18:52;;;;;;;11.77;3.00;;;;;;;;;;4995575;28;20038;-25
2022/11/12 00:21:18;;;;;;;12.57;2.95;;;;;;;;;;4999367;28;20033;-27
2022/11/12 00:23:45;;;;;;;18.15;4.10;;;;;;;;;;4981797;28;20030;-26
2022/11/12 00:26:11;;;;;;;11.52;3.38;;;;;;;;;;4981853;28;20038;-27
2022/11/12 00:28:37;;;;;;;13.35;4.13;;;;;;;;;;4999233;28;20026;-24
2022/11/12 00:31:07;;;;;;;17.83;3.50;;;;;;;;;;4999173;28;20022;-25
2022/11/12 00:33:33;;;;;;;16.92;3.67;;;;;;;;;;4998830;28;20098;-25
2022/11/12 00:35:59;;;;;;;14.07;3.85;;;;;;;;;;4999096;28;20085;-28
2022/11/12 00:38:25;;;;;;;18.88;4.45;;;;;;;;;;4998739;28;20026;-27
2022/11/12 00:40:52;;;;;;;18.67;3.22;;;;;;;;;;4999003;28;20331;-24
2022/11/12 00:43:18;;;;;;;12.85;2.63;;;;;;;;;;4981451;28;20450;-25
2022/11/12 00:45:44;;;;;;;10.45;3.88;;;;;;;;;;4981480;28;20050;-25
2022/11/12 00:48:10;;;;;;;11.88;3.50;;;;;;;;;;4981497;28;20042;-27
2022/11/12 00:50:36;;;;;;;9.40;3.30;;;;;;;;;;4981411;28;20034;-26
2022/11/12 00:53:02;;;;;;;16.13;3.70;;;;;;;;;;4998478;28;20434;-27
2022/11/12 00:55:29;;;;;;;10.85;3.08;;;;;;;;;;4998520;28;20037;-26
2022/11/12 00:57:58;;;;;;;15.35;3.95;;;;;;;;;;4998670;28;20401;-24
2022/11/12 01:00:24;;;;;;;20.33;4.72;;;;;;;;;;4998463;28;20050;-25
2022/11/12 01:02:50;;;;;;;11.57;3.35;;;;;;;;;;4998245;28;20104;-26
2022/11/12 01:05:16;;;;;;;10.80;3.22;;;;;;;;;;4998268;28;20034;-28
2022/11/12 01:07:42;;;;;;;12.30;3.15;;;;;;;;;;4998284;28;20030;-25
2022/11/12 01:10:09;;;;;;;7.60;2.60;;;;;;;;;;4998473;28;20081;-25
2022/11/12 01:12:36;;;;;;;18.42;3.90;;;;;;;;;;4998128;28;20027;-24
2022/11/12 01:15:02;;;;;;;10.93;2.88;;;;;;;;;;4998398;28;20026;-25
2022/11/12 01:17:29;;;;;;;14.68;3.40;;;;;;;;;;4998021;28;20449;-27
2022/11/12 01:19:55;;;;;;;14.80;4.35;;;;;;;;;;4998045;28;20033;-28
2022/11/12 01:22:21;;;;;;;15.43;3.60;;;;;;;;;;4997926;28;20045;-24
2022/11/12 01:24:47;;;;;;;14.25;3.15;;;;;;;;;;4997897;28;20039;-24
2022/11/12 01:27:14;;;;;;;18.55;3.60;;;;;;;;;;4997898;28;20026;-26
2022/11/12 01:29:40;;;;;;;10.50;3.22;;;;;;;;;;4997855;28;20034;-25
2022/11/12 01:32:06;;;;;;;11.27;3.45;;;;;;;;;;4997755;28;20108;-25
2022/11/12 01:34:32;;;;;;;12.75;3.35;;;;;;;;;;4997728;28;20045;-27
2022/11/12 01:36:59;;;;;;;12.80;2.97;;;;;;;;;;4998023;28;20037;-27
2022/11/12 01:39:25;;;;;;;9.85;3.22;;;;;;;;;;4980437;28;20034;-24
2022/11/12 01:41:51;;;;;;;7.65;2.83;;;;;;;;;;4997814;28;20022;-25
2022/11/12 01:44:19;;;;;;;10.23;2.80;;;;;;;;;;4997895;28;20030;-25
2022/11/12 01:46:45;;;;;;;9.05;2.40;;;;;;;;;;4997527;28;20101;-25
2022/11/12 01:49:14;;;;;;;13.45;3.40;;;;;;;;;;4997781;28;20034;-24
2022/11/12 01:51:42;;;;;;;11.02;3.95;;;;;;;;;;4997468;28;20030;-25
2022/11/12 01:54:10;;;;;;;13.00;3.92;;;;;;;;;;4997430;28;20034;-26
2022/11/12 01:56:37;;;;;;;5.22;2.75;;;;;;;;;;4997365;28;20041;-24
2022/11/12 01:59:10;;;;;;;13.27;3.80;;;;;;;;;;4997272;28;20030;-25
2022/11/12 02:01:37;;;;;;;17.02;3.80;;;;;;;;;;4997587;28;20030;-26
2022/11/12 02:04:03;;;;;;;16.52;4.07;;;;;;;;;;4997022;28;20047;-25
2022/11/12 02:06:30;;;;;;;9.68;3.55;;;;;;;;;;4997204;28;20084;-24
2022/11/12 02:08:56;;;;;;;9.90;3.65;;;;;;;;;;4980444;28;20107;-25
2022/11/12 02:11:22;;;;;;;8.43;3.13;;;;;;;;;;4997356;28;20465;-24
2022/11/12 02:14:01;;;;;;;9.13;2.85;;;;;;;;;;4997238;28;20380;-24
2022/11/12 02:16:35;;;;;;;9.20;3.25;;;;;;;;;;4997311;28;20058;-27
2022/11/12 02:19:03;;;;;;;12.48;3.80;;;;;;;;;;4997153;28;20041;-27
2022/11/12 02:21:30;;;;;;;12.27;3.83;;;;;;;;;;4996889;28;20018;-25
2022/11/12 02:24:00;;;;;;;9.27;4.13;;;;;;;;;;4996843;28;20077;-25
2022/11/12 02:26:27;;;;;;;7.77;2.83;;;;;;;;;;4996881;28;20041;-26
2022/11/12 02:28:53;;;;;;;8.30;3.42;;;;;;;;;;4996730;28;20276;-30
2022/11/12 02:31:20;;;;;;;8.73;3.20;;;;;;;;;;4996999;28;20030;-25
2022/11/12 02:33:46;;;;;;;6.80;2.60;;;;;;;;;;4996621;28;20037;-25
2022/11/12 02:36:12;;;;;;;9.65;2.85;;;;;;;;;;4996854;28;20048;-28
2022/11/12 02:38:38;;;;;;;12.00;3.13;;;;;;;;;;4996742;28;20349;-24
2022/11/12 02:41:04;;;;;;;11.48;3.00;;;;;;;;;;4996599;28;20026;-27
2022/11/12 02:43:30;;;;;;;7.45;3.08;;;;;;;;;;4995936;28;20417;-26
2022/11/12 02:45:56;;;;;;;4.30;2.83;;;;;;;;;;4996723;28;20026;-24
2022/11/12 02:48:22;;;;;;;15.57;3.58;;;;;;;;;;4996421;28;20041;-25
2022/11/12 02:50:49;;;;;;;12.48;3.83;;;;;;;;;;4996372;28;20026;-26
2022/11/12 02:53:15;;;;;;;11.50;2.40;;;;;;;;;;4996307;28;20096;-26
2022/11/12 02:55:42;;;;;;;8.13;3.05;;;;;;;;;;4996508;28;20065;-25
2022/11/12 02:58:08;;;;;;;9.45;3.10;;;;;;;;;;4996409;28;20049;-24
2022/11/12 03:00:35;;;;;;;12.60;3.53;;;;;;;;;;4996182;28;20026;-24
2022/11/12 03:03:01;;;;;;;11.00;4.80;;;;;;;;;;4975518;28;20050;-25
2022/11/12 03:05:28;;;;;;;8.40;2.50;;;;;;;;;;4976634;28;20037;-24
2022/11/12 03:07:58;;;;;;;7.63;3.88;;;;;;;;;;4976880;28;20035;-24
2022/11/12 03:10:25;;;;;;;7.05;2.63;;;;;;;;;;4976577;28;20027;-26
2022/11/12 03:12:52;;;;;;;7.57;2.40;;;;;;;;;;4976708;28;20041;-27
2022/11/12 03:15:18;;;;;;;9.88;2.90;;;;;;;;;;4976438;28;20034;-24
2022/11/12 03:17:44;;;;;;;11.10;3.40;;;;;;;;;;4976621;28;20062;-27
2022/11/12 03:20:11;;;;;;;10.23;3.58;;;;;;;;;;4976696;28;20034;-25
2022/11/12 03:22:38;;;;;;;11.32;3.25;;;;;;;;;;4976290;28;20105;-25
2022/11/12 03:25:05;;;;;;;14.38;3.58;;;;;;;;;;4976285;28;20070;-26
2022/11/12 03:27:31;;;;;;;9.65;3.50;;;;;;;;;;4976566;28;20030;-26
2022/11/12 03:29:58;;;;;;;10.68;3.08;;;;;;;;;;4976533;28;20045;-25
2022/11/12 03:32:24;;;;;;;11.10;2.88;;;;;;;;;;4976190;28;20047;-26
2022/11/12 03:34:50;;;;;;;5.78;2.75;;;;;;;;;;4976184;28;20110;-27
2022/11/12 03:37:17;;;;;;;5.88;3.03;;;;;;;;;;4976169;28;20029;-28
2022/11/12 03:39:43;;;;;;;4.82;2.97;;;;;;;;;;4976344;28;20034;-30
2022/11/12 03:42:09;;;;;;;8.52;3.00;;;;;;;;;;4975963;28;20027;-28
2022/11/12 03:44:35;;;;;;;8.63;4.35;;;;;;;;;;4976354;28;20050;-26
2022/11/12 03:47:01;;;;;;;7.88;2.97;;;;;;;;;;4975997;28;20115;-24
2022/11/12 03:49:28;;;;;;;7.55;2.97;;;;;;;;;;4976280;28;20026;-25
2022/11/12 03:51:54;;;;;;;5.65;2.95;;;;;;;;;;4975904;28;20027;-25
2022/11/12 03:54:20;;;;;;;11.65;3.00;;;;;;;;;;4975941;28;20113;-25
2022/11/12 03:56:46;;;;;;;11.30;3.28;;;;;;;;;;4975919;28;20119;-25
2022/11/12 03:59:12;;;;;;;9.30;3.67;;;;;;;;;;4975822;28;20026;-25
2022/11/12 04:01:38;;;;;;;9.90;2.92;;;;;;;;;;4975793;28;20035;-26
2022/11/12 04:04:04;;;;;;;5.40;2.70;;;;;;;;;;4991911;28;20046;-26
2022/11/12 04:09:15;;;;;;;7.70;4.00;;;;;;;;;;4995281;28;20070;-26
2022/11/12 04:11:41;;;;;;;12.50;3.50;;;;;;;;;;4995440;28;20370;-25
2022/11/12 04:14:08;;;;;;;10.43;2.72;;;;;;;;;;4995186;28;20033;-24
2022/11/12 04:22:08;;;;;;;12.57;2.85;;;;;;;;;;4995099;28;20029;-25
2022/11/12 04:27:27;;;;;;;15.98;3.03;;;;;;;;;;4995399;28;20061;-25
2022/11/12 04:32:40;;;;;;;8.45;3.85;;;;;;;;;;4995545;28;20093;-27
2022/11/12 04:35:07;;;;;;;10.43;3.45;;;;;;;;;;4995014;28;20029;-26
2022/11/12 04:37:43;;;;;;;8.95;3.90;;;;;;;;;;4994840;28;20061;-26
2022/11/12 04:45:41;;;;;;;6.57;3.13;;;;;;;;;;4995051;28;20061;-24
2022/11/12 04:48:08;;;;;;;10.68;2.80;;;;;;;;;;4995141;28;20034;-26
2022/11/12 04:50:34;;;;;;;7.43;2.72;;;;;;;;;;4994871;28;20041;-28
2022/11/12 04:53:00;;;;;;;14.52;3.17;;;;;;;;;;4994815;28;20154;-27
2022/11/12 04:55:26;;;;;;;14.68;3.10;;;;;;;;;;4994835;28;20026;-24
2022/11/12 04:57:52;;;;;;;7.03;3.30;;;;;;;;;;4994679;28;20461;-25
2022/11/12 05:00:18;;;;;;;6.07;2.97;;;;;;;;;;4995080;28;20028;-27
2022/11/12 05:02:45;;;;;;;13.68;3.92;;;;;;;;;;4994673;28;20046;-25
2022/11/12 05:05:11;;;;;;;6.43;2.60;;;;;;;;;;4995650;28;20030;-27
2022/11/12 05:07:37;;;;;;;7.63;3.08;;;;;;;;;;4998305;28;20157;-26
2022/11/12 05:10:03;;;;;;;10.75;3.53;;;;;;;;;;4998507;28;20022;-25
2022/11/12 05:12:29;;;;;;;6.28;2.72;;;;;;;;;;4998177;28;20403;-26
2022/11/12 05:14:55;;;;;;;8.52;2.63;;;;;;;;;;4998410;28;20062;-25
2022/11/12 05:17:22;;;;;;;12.10;3.13;;;;;;;;;;4980953;28;20023;-25
2022/11/12 05:19:48;;;;;;;7.95;3.03;;;;;;;;;;4998015;28;20036;-25
2022/11/12 05:22:14;;;;;;;6.38;3.63;;;;;;;;;;4998509;28;20030;-25
2022/11/12 05:24:41;;;;;;;10.40;2.58;;;;;;;;;;4998011;28;20093;-25
2022/11/12 05:27:10;;;;;;;9.23;3.70;;;;;;;;;;4998235;28;20031;-29
2022/11/12 05:29:36;;;;;;;11.27;2.92;;;;;;;;;;4997905;28;20365;-28
2022/11/12 05:32:03;;;;;;;11.57;2.78;;;;;;;;;;4997775;28;20118;-28
2022/11/12 05:34:29;;;;;;;6.00;3.10;;;;;;;;;;4997831;28;20038;-26
2022/11/12 05:36:56;;;;;;;6.18;2.50;;;;;;;;;;4997774;28;20082;-25
2022/11/12 05:39:22;;;;;;;6.72;2.78;;;;;;;;;;4980539;28;20041;-25
2022/11/12 05:41:48;;;;;;;9.00;3.22;;;;;;;;;;4997556;28;20030;-26
2022/11/12 05:44:14;;;;;;;4.40;3.67;;;;;;;;;;4980451;28;20101;-27
2022/11/12 05:46:40;;;;;;;8.02;3.33;;;;;;;;;;4997831;28;20034;-27
2022/11/12 05:49:07;;;;;;;8.40;3.40;;;;;;;;;;4997527;28;20040;-25
2022/11/12 05:51:33;;;;;;;10.02;2.92;;;;;;;;;;4997490;28;20505;-25
2022/11/12 05:53:59;;;;;;;9.93;3.25;;;;;;;;;;4997636;28;20018;-24
2022/11/12 05:56:25;;;;;;;5.65;2.58;;;;;;;;;;4997414;28;20053;-25
2022/11/12 05:58:51;;;;;;;10.73;3.58;;;;;;;;;;4997279;28;20038;-27
2022/11/12 06:01:18;;;;;;;8.93;3.05;;;;;;;;;;4997606;28;20018;-25
2022/11/12 06:03:44;;;;;;;9.48;2.78;;;;;;;;;;4979876;28;20478;-26
2022/11/12 06:06:10;;;;;;;5.25;3.28;;;;;;;;;;4997242;28;20050;-26
2022/11/12 06:08:36;;;;;;;5.30;3.17;;;;;;;;;;4997133;28;20070;-28
2022/11/12 06:11:02;;;;;;;13.48;3.45;;;;;;;;;;4997098;28;20421;-30
2022/11/12 06:13:28;;;;;;;10.68;2.70;;;;;;;;;;4979863;28;20476;-25
2022/11/12 06:15:55;;;;;;;5.97;2.95;;;;;;;;;;4996734;28;20461;-25
2022/11/12 06:18:21;;;;;;;9.38;4.53;;;;;;;;;;4996201;28;20054;-27
2022/11/12 06:23:32;;;;;;;6.03;2.67;;;;;;;;;;4996906;28;20058;-27
2022/11/12 06:25:59;;;;;;;10.05;3.22;;;;;;;;;;4979727;28;20458;-25
2022/11/12 06:28:25;;;;;;;5.20;2.45;;;;;;;;;;4979667;28;20038;-27
2022/11/12 06:30:51;;;;;;;6.18;2.47;;;;;;;;;;4997024;28;20037;-26
2022/11/12 06:33:17;;;;;;;3.70;2.33;;;;;;;;;;4996602;28;20488;-29
2022/11/12 06:35:43;;;;;;;7.30;3.28;;;;;;;;;;4979519;28;20493;-25
2022/11/12 06:38:10;;;;;;;6.88;2.42;;;;;;;;;;4996588;28;20092;-27
2022/11/12 06:40:36;;;;;;;9.40;4.65;;;;;;;;;;4979505;28;20034;-24
2022/11/12 06:43:02;;;;;;;7.82;2.63;;;;;;;;;;4996473;28;20085;-26
2022/11/12 06:45:28;;;;;;;6.05;2.70;;;;;;;;;;4979391;28;20034;-24
2022/11/12 06:47:58;;;;;;;7.40;2.90;;;;;;;;;;4996985;28;20026;-28
2022/11/12 06:50:24;;;;;;;10.55;2.42;;;;;;;;;;4996684;28;20034;-27
2022/11/12 06:52:50;;;;;;;10.48;4.13;;;;;;;;;;4996689;28;20433;-32
2022/11/12 06:55:16;;;;;;;5.55;2.50;;;;;;;;;;4996316;28;20037;-26
2022/11/12 06:57:43;;;;;;;3.70;2.67;;;;;;;;;;4996160;28;20485;-28
2022/11/12 07:00:10;;;;;;;8.85;3.25;;;;;;;;;;4996227;28;20416;-25
2022/11/12 07:02:37;;;;;;;6.97;2.80;;;;;;;;;;4996443;28;20086;-28
2022/11/12 07:05:03;;;;;;;7.85;3.35;;;;;;;;;;4996116;28;20034;-25
2022/11/12 07:07:29;;;;;;;4.53;2.63;;;;;;;;;;4996332;28;20033;-27
2022/11/12 07:09:55;;;;;;;7.35;2.30;;;;;;;;;;4996301;28;20052;-29
2022/11/12 07:12:21;;;;;;;4.88;2.67;;;;;;;;;;4996204;28;20105;-25
2022/11/12 07:14:47;;;;;;;9.13;2.63;;;;;;;;;;4996215;28;20343;-26
2022/11/12 07:17:13;;;;;;;7.28;2.63;;;;;;;;;;4996161;28;20026;-24
2022/11/12 07:19:40;;;;;;;5.30;2.67;;;;;;;;;;4978681;28;20429;-25
2022/11/12 07:22:06;;;;;;;8.13;2.75;;;;;;;;;;4996299;28;20037;-26
2022/11/12 07:24:32;;;;;;;9.18;2.63;;;;;;;;;;4996048;28;20018;-25
2022/11/12 07:26:58;;;;;;;3.88;2.00;;;;;;;;;;4978673;28;20022;-25
2022/11/12 07:29:24;;;;;;;9.20;2.45;;;;;;;;;;4978352;28;20033;-26
2022/11/12 07:31:50;;;;;;;5.45;3.50;;;;;;;;;;4995635;28;20034;-25
2022/11/12 07:34:16;;;;;;;6.88;2.72;;;;;;;;;;4995915;28;20038;-26
2022/11/12 07:36:42;;;;;;;4.38;2.75;;;;;;;;;;4995775;28;20437;-28
2022/11/12 07:39:09;;;;;;;4.93;2.90;;;;;;;;;;4978395;28;20077;-26
2022/11/12 07:41:35;;;;;;;6.05;2.85;;;;;;;;;;4995502;28;20045;-28
2022/11/12 07:44:01;;;;;;;6.05;2.83;;;;;;;;;;4995422;28;20026;-25
2022/11/12 07:46:27;;;;;;;8.20;2.70;;;;;;;;;;4995447;28;20026;-24
2022/11/12 07:48:55;;;;;;;4.80;2.55;;;;;;;;;;4995425;28;20026;-26
2022/11/12 07:51:25;;;;;;;7.07;3.13;;;;;;;;;;4995406;28;20061;-26
2022/11/12 07:53:56;;;;;;;3.33;2.50;;;;;;;;;;4995326;28;20059;-25
2022/11/12 07:56:22;;;;;;;5.57;2.83;;;;;;;;;;4995392;28;20034;-25
2022/11/12 07:58:49;;;;;;;6.13;2.47;;;;;;;;;;4995530;28;20031;-24
2022/11/12 08:01:30;;;;;;;5.07;2.78;;;;;;;;;;4995304;28;20104;-25
2022/11/12 08:03:56;;;;;;;;;;;;;;;;;;4995492;28;20046;-26
2022/11/12 08:06:23;;;;;;;5.25;2.72;;;;;;;;;;4995544;28;20008;-25
2022/11/12 08:08:52;;;;;;;7.10;2.38;;;;;;;;;;4995253;28;20026;-25
2022/11/12 08:11:19;;;;;;;7.22;2.50;;;;;;;;;;4995239;28;20088;-26
2022/11/12 08:13:45;;;;;;;3.47;2.10;;;;;;;;;;4995112;28;20058;-28
2022/11/12 08:16:11;;;;;;;5.97;2.72;;;;;;;;;;4995149;28;20109;-26
2022/11/12 08:18:37;;;;;;;2.50;2.00;;;;;;;;;;4995005;28;20026;-26
2022/11/12 08:21:05;;;;;;;4.97;2.00;;;;;;;;;;4977997;28;20117;-27
2022/11/12 08:23:31;;;;;;;4.63;2.30;;;;;;;;;;4995125;28;20093;-28
2022/11/12 08:25:58;;;;;;;3.63;2.35;;;;;;;;;;4978014;28;20023;-26
2022/11/12 08:28:25;;;;;;;8.05;3.45;;;;;;;;;;4995087;28;20034;-28
2022/11/12 08:30:51;;;;;;;5.32;2.50;;;;;;;;;;4995047;28;20035;-29
2022/11/12 08:33:17;;;;;;;4.30;2.28;;;;;;;;;;4994981;28;20042;-24
2022/11/12 08:35:43;;;;;;;5.55;2.38;;;;;;;;;;4995033;28;20031;-26
2022/11/12 08:38:10;;;;;;;5.80;2.28;;;;;;;;;;4995210;28;20038;-25
2022/11/12 08:40:36;;;;;;;6.03;3.30;;;;;;;;;;4996956;28;20357;-28
2022/11/12 08:43:04;;;;;;;6.45;3.75;;;;;;;;;;4998635;28;20493;-26
2022/11/12 08:45:34;;;;;;;5.03;2.85;;;;;;;;;;4998685;28;20196;-25
2022/11/12 08:48:05;;;;;;;3.25;2.20;;;;;;;;;;4998989;28;20040;-26
2022/11/12 08:50:31;;;;;;;4.53;2.60;;;;;;;;;;4981531;28;20370;-30
2022/11/12 08:53:05;;;;;;;3.35;2.08;;;;;;;;;;4998536;28;20026;-26
2022/11/12 08:55:34;;;;;;;7.03;2.47;;;;;;;;;;4981474;28;20432;-26
2022/11/12 08:58:01;;;;;;;5.60;2.40;;;;;;;;;;4981282;28;20042;-29
2022/11/12 09:00:38;;;;;;;6.18;2.30;;;;;;;;;;4998429;28;20041;-25
2022/11/12 09:03:05;;;;;;;6.38;2.53;;;;;;;;;;4998360;28;20046;-25
2022/11/12 09:05:31;;;;;;;6.80;2.95;;;;;;;;;;4998430;28;20081;-26
2022/11/12 09:08:02;;;;;;;5.03;2.47;;;;;;;;;;4981168;28;20030;-25
2022/11/12 09:10:28;;;;;;;6.60;2.42;;;;;;;;;;4998249;28;20092;-27
2022/11/12 09:12:55;;;;;;;4.15;2.40;;;;;;;;;;4981038;28;20084;-25
2022/11/12 09:15:21;;;;;;;2.80;2.38;;;;;;;;;;4998457;28;20030;-27
2022/11/12 09:17:47;;;;;;;4.07;2.90;;;;;;;;;;4980931;28;20065;-24
2022/11/12 09:20:14;;;;;;;4.75;2.53;;;;;;;;;;4998633;28;20026;-27
2022/11/12 09:22:40;;;;;;;5.60;2.95;;;;;;;;;;4998026;28;20053;-24
2022/11/12 09:25:06;;;;;;;3.53;2.33;;;;;;;;;;4998028;28;20030;-24
2022/11/12 09:27:32;;;;;;;6.25;2.90;;;;;;;;;;4998227;28;20018;-28
2022/11/12 09:29:59;;;;;;;5.97;2.38;;;;;;;;;;4998201;28;20320;-25
2022/11/12 09:32:25;;;;;;;5.07;2.28;;;;;;;;;;4998026;28;20365;-27
2022/11/12 09:34:51;;;;;;;6.13;2.25;;;;;;;;;;4998867;28;20038;-27
2022/11/12 09:37:17;;;;;;;5.53;2.85;;;;;;;;;;4997745;28;20022;-24
2022/11/12 09:39:43;;;;;;;13.43;5.00;;;;;;;;;;4997683;28;20034;-24
2022/11/12 09:42:13;;;;;;;4.75;2.28;;;;;;;;;;4997880;28;20354;-28
2022/11/12 09:44:41;;;;;;;5.93;2.53;;;;;;;;;;4998252;28;20053;-25
2022/11/12 09:47:19;;;;;;;4.10;2.63;;;;;;;;;;4997547;28;20026;-29
2022/11/12 09:49:49;;;;;;;3.38;2.20;;;;;;;;;;4997554;28;20097;-27
2022/11/12 09:52:22;;;;;;;6.68;2.65;;;;;;;;;;4997609;28;20022;-28
2022/11/12 09:54:51;;;;;;;6.07;2.47;;;;;;;;;;4997744;28;20097;-24
2022/11/12 09:57:18;;;;;;;5.38;2.10;;;;;;;;;;4980300;28;20026;-27
2022/11/12 09:59:44;;;;;;;3.60;2.53;;;;;;;;;;4997320;28;20041;-26
2022/11/12 10:02:13;;;;;;;9.50;2.67;;;;;;;;;;4980132;28;20072;-24
2022/11/12 10:04:45;;;;;;;5.13;2.60;;;;;;;;;;4997849;28;20046;-25
2022/11/12 10:07:11;;;;;;;4.55;2.63;;;;;;;;;;4980139;28;20034;-28
2022/11/12 10:09:48;;;;;;;6.55;2.75;;;;;;;;;;4997157;28;20030;-24
2022/11/12 10:12:31;;;;;;;4.35;2.20;;;;;;;;;;4979939;28;20041;-24
2022/11/12 10:18:08;;;;;;;3.95;2.63;;;;;;;;;;4997586;28;20069;-25
2022/11/12 10:20:48;;;;;;;5.40;2.67;;;;;;;;;;4997297;28;20026;-29
2022/11/12 10:23:32;;;;;;;4.13;2.35;;;;;;;;;;4996851;28;20109;-27
2022/11/12 10:26:01;;;;;;;9.02;3.22;;;;;;;;;;4997201;28;20034;-26
2022/11/12 10:28:28;;;;;;;5.43;1.98;;;;;;;;;;4996890;28;20417;-26
2022/11/12 10:31:15;;;;;;;5.47;2.78;;;;;;;;;;4996787;28;20458;-25
2022/11/12 10:33:41;;;;;;;7.57;2.38;;;;;;;;;;4996596;28;20106;-25
2022/11/12 10:36:13;;;;;;;5.80;2.30;;;;;;;;;;4996714;28;20033;-25
2022/11/12 10:38:41;;;;;;;3.97;2.42;;;;;;;;;;4996860;28;20323;-25
2022/11/12 10:41:26;;;;;;;4.68;2.90;;;;;;;;;;4996591;28;20112;-26
2022/11/12 10:43:55;;;;;;;4.97;2.63;;;;;;;;;;4996485;28;20026;-26
2022/11/12 10:46:26;;;;;;;5.35;2.85;;;;;;;;;;4996535;28;20408;-25
2022/11/12 10:48:58;;;;;;;6.05;2.00;;;;;;;;;;4996755;28;20030;-25
2022/11/12 10:51:34;;;;;;;5.43;3.78;;;;;;;;;;4996713;28;20030;-26
2022/11/12 10:54:19;;;;;;;6.22;2.60;;;;;;;;;;4996206;28;20042;-26
2022/11/12 10:56:47;;;;;;;5.28;2.40;;;;;;;;;;4996863;28;20327;-24
2022/11/12 10:59:17;;;;;;;5.47;2.80;;;;;;;;;;4996215;28;20458;-26
2022/11/12 11:01:44;;;;;;;4.30;2.40;;;;;;;;;;4996139;28;20026;-27
2022/11/12 11:04:18;;;;;;;5.63;2.38;;;;;;;;;;4995422;28;20286;-25
2022/11/12 11:06:45;;;;;;;5.05;2.17;;;;;;;;;;4996356;28;20104;-27
2022/11/12 11:09:11;;;;;;;4.90;2.38;;;;;;;;;;4996371;28;20038;-26
2022/11/12 11:11:37;;;;;;;3.58;1.98;;;;;;;;;;4996053;28;20405;-26
2022/11/12 11:14:22;;;;;;;4.05;2.40;;;;;;;;;;4996184;28;20030;-25
2022/11/12 11:16:56;;;;;;;3.40;2.22;;;;;;;;;;4996001;28;20026;-25
2022/11/12 11:19:22;;;;;;;5.50;2.45;;;;;;;;;;4996081;28;20057;-25
2022/11/12 11:21:49;;;;;;;5.15;2.70;;;;;;;;;;4995789;28;20019;-27
2022/11/12 11:24:18;;;;;;;4.45;2.60;;;;;;;;;;4978684;28;20121;-25
2022/11/12 11:27:03;;;;;;;4.68;2.38;;;;;;;;;;4996529;28;20042;-28
2022/11/12 11:29:29;;;;;;;5.60;2.47;;;;;;;;;;4995755;28;20093;-27
2022/11/12 11:32:01;;;;;;;5.65;2.28;;;;;;;;;;4995585;28;20054;-26
2022/11/12 11:35:06;;;;;;;6.55;2.25;;;;;;;;;;4995707;28;20405;-28
2022/11/12 11:37:38;;;;;;;4.38;2.92;;;;;;;;;;4901557;29;20045;-28
2022/11/12 11:40:13;;;;;;;6.90;2.72;;;;;;;;;;4917441;29;20065;-25
2022/11/12 11:42:45;;;;;;;4.32;2.22;;;;;;;;;;4962459;28;20454;-25
2022/11/12 11:45:16;;;;;;;6.82;2.92;;;;;;;;;;4995502;28;20030;-24
2022/11/12 11:47:42;;;;;;;7.55;2.47;;;;;;;;;;4995776;28;20033;-25
2022/11/12 11:50:14;;;;;;;5.20;2.67;;;;;;;;;;4995441;28;20023;-25
2022/11/12 11:52:54;;;;;;;4.80;2.97;;;;;;;;;;4995338;28;20362;-26
2022/11/12 11:55:20;;;;;;;3.50;2.22;;;;;;;;;;4995341;28;20030;-26
2022/11/12 11:57:50;;;;;;;6.10;2.00;;;;;;;;;;4995298;28;20465;-27
2022/11/12 12:00:30;;;;;;;6.97;3.15;;;;;;;;;;4995638;28;20026;-25
2022/11/12 12:02:56;;;;;;;4.15;2.08;;;;;;;;;;4995167;28;20042;-25
2022/11/12 12:05:28;;;;;;;5.70;2.75;;;;;;;;;;4995319;28;20046;-25
2022/11/12 12:07:54;;;;;;;4.15;2.40;;;;;;;;;;4995537;28;20031;-29
2022/11/12 12:10:35;;;;;;;3.40;1.70;;;;;;;;;;4995275;28;20526;-25
2022/11/12 12:13:20;;;;;;;7.95;2.20;;;;;;;;;;4995208;28;20023;-28
2022/11/12 12:15:49;;;;;;;4.55;2.00;;;;;;;;;;4997583;28;20026;-24
2022/11/12 12:18:27;;;;;;;4.13;2.25;;;;;;;;;;4982053;28;20042;-25
2022/11/12 12:20:53;;;;;;;4.75;2.28;;;;;;;;;;4999526;28;20388;-25
2022/11/12 12:23:25;;;;;;;6.03;2.15;;;;;;;;;;4999074;28;20023;-25
2022/11/12 12:25:51;;;;;;;7.55;3.08;;;;;;;;;;4999425;28;20061;-27
2022/11/12 12:28:37;;;;;;;5.97;2.17;;;;;;;;;;4999049;28;20030;-26
2022/11/12 12:31:13;;;;;;;4.68;2.45;;;;;;;;;;4999050;28;20488;-28
2022/11/12 12:33:42;;;;;;;6.63;2.90;;;;;;;;;;4981767;28;20030;-26
2022/11/12 12:36:23;;;;;;;2.72;2.22;;;;;;;;;;4998877;28;20034;-27
2022/11/12 12:38:55;;;;;;;3.20;2.05;;;;;;;;;;4982199;28;20030;-30
2022/11/12 12:41:26;;;;;;;5.70;2.10;;;;;;;;;;4998885;28;20122;-26
2022/11/12 12:43:52;;;;;;;2.97;1.73;;;;;;;;;;4998785;28;20026;-25
2022/11/12 12:46:21;;;;;;;6.05;2.35;;;;;;;;;;4999020;28;20027;-27
2022/11/12 12:48:50;;;;;;;3.65;2.75;;;;;;;;;;4981519;28;20041;-27
2022/11/12 12:51:16;;;;;;;3.33;2.10;;;;;;;;;;4998633;28;20458;-25
2022/11/12 12:53:42;;;;;;;3.97;2.40;;;;;;;;;;4998490;28;20085;-26
2022/11/12 12:56:08;;;;;;;4.43;2.55;;;;;;;;;;4998520;28;20102;-25
2022/11/12 12:58:40;;;;;;;5.88;2.88;;;;;;;;;;4998385;28;20105;-29
2022/11/12 13:01:27;;;;;;;6.97;2.25;;;;;;;;;;4998499;28;20200;-27
2022/11/12 13:03:55;;;;;;;6.20;2.00;;;;;;;;;;4984757;28;20477;-27
2022/11/12 13:06:21;;;;;;;3.17;2.00;;;;;;;;;;4998395;28;20412;-24
2022/11/12 13:08:51;;;;;;;6.15;2.40;;;;;;;;;;4981256;28;20026;-28
2022/11/12 13:12:20;;;;;;;4.15;1.70;;;;;;;;;;4998335;28;20034;-27
2022/11/12 13:14:30;;;;;;;3.58;2.25;;;;;;;;;;4998410;28;20072;-25
2022/11/12 13:17:03;;;;;;;4.47;2.42;;;;;;;;;;4998471;28;20405;-25
2022/11/12 13:19:31;;;;;;;3.70;2.30;;;;;;;;;;4980940;28;20111;-31
2022/11/12 13:22:24;;;;;;;2.80;1.92;;;;;;;;;;4980869;28;20034;-25
2022/11/12 13:24:59;;;;;;;5.10;2.42;;;;;;;;;;4952028;28;20092;-25
2022/11/12 13:27:44;;;;;;;5.15;3.13;;;;;;;;;;4997774;28;20022;-25
2022/11/12 13:30:13;;;;;;;3.13;2.35;;;;;;;;;;4997893;28;20050;-25
2022/11/12 13:32:46;;;;;;;2.90;2.30;;;;;;;;;;4998082;28;20026;-25
2022/11/12 13:35:21;;;;;;;2.63;1.65;;;;;;;;;;4980724;28;20461;-24
2022/11/12 13:38:02;;;;;;;3.83;2.30;;;;;;;;;;4997713;28;20038;-25
2022/11/12 13:40:28;;;;;;;3.55;2.25;;;;;;;;;;4998066;28;20097;-27
2022/11/12 13:42:55;;;;;;;3.75;2.45;;;;;;;;;;4997889;28;20026;-26
2022/11/12 13:45:23;;;;;;;4.63;2.58;;;;;;;;;;4997693;28;20327;-25
2022/11/12 13:47:50;;;;;;;3.80;2.72;;;;;;;;;;4997624;28;20032;-25
2022/11/12 13:50:19;;;;;;;2.72;1.88;;;;;;;;;;4980691;28;20354;-26
2022/11/12 13:52:46;;;;;;;5.60;2.03;;;;;;;;;;4997482;28;20369;-24
2022/11/12 13:55:14;;;;;;;5.50;2.78;;;;;;;;;;4997501;28;20045;-25
2022/11/12 13:57:40;;;;;;;3.83;2.22;;;;;;;;;;4997757;28;20022;-26
2022/11/12 14:00:07;;;;;;;3.42;2.30;;;;;;;;;;4997368;28;20026;-24
2022/11/12 14:02:36;;;;;;;3.72;2.33;;;;;;;;;;4997590;28;20026;-30
2022/11/12 14:05:02;;;;;;;6.65;2.13;;;;;;;;;;4997604;28;20027;-24
2022/11/12 14:07:40;;;;;;;3.08;1.75;;;;;;;;;;4997566;28;20112;-25
2022/11/12 14:10:22;;;;;;;3.00;1.67;;;;;;;;;;4997257;28;20030;-27
2022/11/12 14:12:48;;;;;;;;;;;;;;;;;;4997687;28;20050;-27
2022/11/12 14:15:17;;;;;;;5.20;1.90;;;;;;;;;;4997162;28;19909;-27
2022/11/12 14:17:43;;;;;;;4.90;1.88;;;;;;;;;;4997081;28;20085;-29
2022/11/12 14:20:30;;;;;;;3.38;1.90;;;;;;;;;;4997238;28;20034;-24
2022/11/12 14:22:56;;;;;;;3.45;2.22;;;;;;;;;;4997091;28;20410;-25
2022/11/12 14:25:24;;;;;;;5.07;2.40;;;;;;;;;;4996973;28;20030;-26
2022/11/12 14:27:51;;;;;;;3.95;2.53;;;;;;;;;;4997165;28;20023;-26
2022/11/12 14:30:17;;;;;;;4.43;1.88;;;;;;;;;;4997123;28;20049;-28
2022/11/12 14:32:45;;;;;;;3.65;2.38;;;;;;;;;;4996924;28;20033;-23
2022/11/12 14:35:28;;;;;;;4.05;2.35;;;;;;;;;;4996737;28;20037;-23
2022/11/12 14:38:04;;;;;;;5.57;2.10;;;;;;;;;;4995699;28;20104;-23
2022/11/12 14:40:32;;;;;;;5.22;2.88;;;;;;;;;;4996713;28;20361;-24
2022/11/12 14:42:59;;;;;;;5.70;2.67;;;;;;;;;;4996839;28;20030;-23
2022/11/12 14:45:25;;;;;;;4.25;2.00;;;;;;;;;;4996471;28;20080;-25
2022/11/12 14:47:52;;;;;;;4.93;2.17;;;;;;;;;;4979391;28;20395;-26
2022/11/12 14:50:31;;;;;;;4.35;2.10;;;;;;;;;;4996734;28;20031;-23
2022/11/12 14:53:15;;;;;;;5.20;2.45;;;;;;;;;;4996352;28;20034;-23
2022/11/12 14:55:43;;;;;;;2.95;2.10;;;;;;;;;;4979190;28;20508;-25
2022/11/12 14:58:14;;;;;;;3.55;2.10;;;;;;;;;;4996250;28;20064;-23
2022/11/12 15:00:42;;;;;;;4.85;2.28;;;;;;;;;;4996226;28;20117;-25
2022/11/12 15:03:12;;;;;;;4.07;2.17;;;;;;;;;;4995951;28;20042;-24
2022/11/12 15:05:52;;;;;;;3.13;2.00;;;;;;;;;;4996174;28;20026;-22
2022/11/12 15:08:28;;;;;;;3.13;2.65;;;;;;;;;;4996450;28;20105;-25
2022/11/12 15:10:54;;;;;;;4.20;2.08;;;;;;;;;;4979212;28;20102;-22
2022/11/12 15:13:22;;;;;;;3.55;1.98;;;;;;;;;;4995939;28;20045;-24
2022/11/12 15:15:54;;;;;;;3.10;1.80;;;;;;;;;;4996233;28;20050;-23